sensor_id;sensor_type;location;lat;lon;timestamp;temperature;humidity
2459;DHT22;1241;50.920;6.936;2023-06-22T00:00:27;23.80;99.90
2459;DHT22;1241;50.920;6.936;2023-06-22T00:02:53;23.70;99.90
2459;DHT22;1241;50.920;6.936;2023-06-22T00:05:18;23.70;99.90
2459;DHT22;1241;50.920;6.936;2023-06-22T00:07:44;23.60;99.90
2459;DHT22;1241;50.920;6.936;2023-06-22T00:10:10;23.60;99.90
2459;DHT22;1241;50.920;6.936;2023-06-22T00:12:35;23.60;99.90
2459;DHT22;1241;50.920;6.936;2023-06-22T00:15:01;23.60;99.90
2459;DHT22;1241;50.920;6.936;2023-06-22T00:17:26;23.50;99.90
2459;DHT22;1241;50.920;6.936;2023-06-22T00:19:52;23.50;99.90
2459;DHT22;1241;50.920;6.936;2023-06-22T00:22:19;23.50;99.90
2459;DHT22;1241;50.920;6.936;2023-06-22T00:24:54;23.50;99.90
2459;DHT22;1241;50.920;6.936;2023-06-22T00:27:19;23.50;99.90
2459;DHT22;1241;50.920;6.936;2023-06-22T00:29:45;23.50;99.90
2459;DHT22;1241;50.920;6.936;2023-06-22T00:32:10;23.40;99.90
2459;DHT22;1241;50.920;6.936;2023-06-22T00:34:36;23.40;99.90
2459;DHT22;1241;50.920;6.936;2023-06-22T00:37:02;23.40;99.90
2459;DHT22;1241;50.920;6.936;2023-06-22T00:39:27;23.40;99.90
2459;DHT22;1241;50.920;6.936;2023-06-22T00:41:53;23.50;99.90
2459;DHT22;1241;50.920;6.936;2023-06-22T00:44:18;23.40;99.90
2459;DHT22;1241;50.920;6.936;2023-06-22T00:46:44;23.40;99.90
2459;DHT22;1241;50.920;6.936;2023-06-22T00:49:10;23.40;99.90
2459;DHT22;1241;50.920;6.936;2023-06-22T00:51:35;23.40;99.90
2459;DHT22;1241;50.920;6.936;2023-06-22T00:54:04;23.40;99.90
2459;DHT22;1241;50.920;6.936;2023-06-22T00:56:31;23.50;99.90
2459;DHT22;1241;50.920;6.936;2023-06-22T00:58:58;23.40;99.90
2459;DHT22;1241;50.920;6.936;2023-06-22T01:01:24;23.40;99.90
2459;DHT22;1241;50.920;6.936;2023-06-22T01:03:50;23.40;99.90
2459;DHT22;1241;50.920;6.936;2023-06-22T01:06:18;23.40;99.90
2459;DHT22;1241;50.920;6.936;2023-06-22T01:08:49;23.30;99.90
2459;DHT22;1241;50.920;6.936;2023-06-22T01:11:23;23.30;99.90
2459;DHT22;1241;50.920;6.936;2023-06-22T01:14:00;23.30;99.90
2459;DHT22;1241;50.920;6.936;2023-06-22T01:16:29;23.30;99.90
2459;DHT22;1241;50.920;6.936;2023-06-22T01:18:55;23.40;99.90
2459;DHT22;1241;50.920;6.936;2023-06-22T01:21:22;23.30;99.90
2459;DHT22;1241;50.920;6.936;2023-06-22T01:29:12;23.40;99.90
2459;DHT22;1241;50.920;6.936;2023-06-22T01:31:39;23.40;99.90
2459;DHT22;1241;50.920;6.936;2023-06-22T01:34:06;23.40;99.90
2459;DHT22;1241;50.920;6.936;2023-06-22T01:36:33;23.40;99.90
2459;DHT22;1241;50.920;6.936;2023-06-22T01:38:59;23.40;99.90
2459;DHT22;1241;50.920;6.936;2023-06-22T01:41:25;23.40;99.90
2459;DHT22;1241;50.920;6.936;2023-06-22T01:43:51;23.40;99.90
2459;DHT22;1241;50.920;6.936;2023-06-22T01:46:19;23.40;99.90
2459;DHT22;1241;50.920;6.936;2023-06-22T01:48:46;23.40;99.90
2459;DHT22;1241;50.920;6.936;2023-06-22T01:51:12;23.30;99.90
2459;DHT22;1241;50.920;6.936;2023-06-22T01:53:38;23.40;99.90
2459;DHT22;1241;50.920;6.936;2023-06-22T01:56:04;23.40;99.90
2459;DHT22;1241;50.920;6.936;2023-06-22T01:58:30;23.30;99.90
2459;DHT22;1241;50.920;6.936;2023-06-22T02:01:09;23.30;99.90
2459;DHT22;1241;50.920;6.936;2023-06-22T02:03:37;23.30;99.90
2459;DHT22;1241;50.920;6.936;2023-06-22T02:06:07;23.30;99.90
2459;DHT22;1241;50.920;6.936;2023-06-22T02:08:36;23.30;99.90
2459;DHT22;1241;50.920;6.936;2023-06-22T02:11:02;23.40;99.90
2459;DHT22;1241;50.920;6.936;2023-06-22T02:13:28;23.40;99.90
2459;DHT22;1241;50.920;6.936;2023-06-22T02:15:54;23.30;99.90
2459;DHT22;1241;50.920;6.936;2023-06-22T02:18:20;23.30;99.90
2459;DHT22;1241;50.920;6.936;2023-06-22T02:20:46;23.20;99.90
2459;DHT22;1241;50.920;6.936;2023-06-22T02:23:11;23.20;99.90
2459;DHT22;1241;50.920;6.936;2023-06-22T02:25:37;23.20;99.90
2459;DHT22;1241;50.920;6.936;2023-06-22T02:28:03;23.10;99.90
2459;DHT22;1241;50.920;6.936;2023-06-22T02:30:28;23.20;99.90
2459;DHT22;1241;50.920;6.936;2023-06-22T02:32:54;23.20;99.90
2459;DHT22;1241;50.920;6.936;2023-06-22T02:35:27;23.10;99.90
2459;DHT22;1241;50.920;6.936;2023-06-22T02:37:59;23.10;99.90
2459;DHT22;1241;50.920;6.936;2023-06-22T02:40:26;23.00;99.90
2459;DHT22;1241;50.920;6.936;2023-06-22T02:42:52;23.00;99.90
2459;DHT22;1241;50.920;6.936;2023-06-22T02:45:17;23.10;99.90
2459;DHT22;1241;50.920;6.936;2023-06-22T02:47:43;23.10;99.90
2459;DHT22;1241;50.920;6.936;2023-06-22T02:50:09;23.10;99.90
2459;DHT22;1241;50.920;6.936;2023-06-22T02:52:35;23.10;99.90
2459;DHT22;1241;50.920;6.936;2023-06-22T02:55:01;23.10;99.90
2459;DHT22;1241;50.920;6.936;2023-06-22T02:57:28;23.10;99.90
2459;DHT22;1241;50.920;6.936;2023-06-22T02:59:53;23.20;99.90
2459;DHT22;1241;50.920;6.936;2023-06-22T03:02:20;23.20;99.90
2459;DHT22;1241;50.920;6.936;2023-06-22T03:04:47;23.20;99.90
2459;DHT22;1241;50.920;6.936;2023-06-22T03:07:14;23.10;99.90
2459;DHT22;1241;50.920;6.936;2023-06-22T03:09:40;23.10;99.90
2459;DHT22;1241;50.920;6.936;2023-06-22T03:12:07;23.10;99.90
2459;DHT22;1241;50.920;6.936;2023-06-22T03:14:49;23.10;99.90
2459;DHT22;1241;50.920;6.936;2023-06-22T03:17:14;23.20;99.90
2459;DHT22;1241;50.920;6.936;2023-06-22T03:19:40;23.20;99.90
2459;DHT22;1241;50.920;6.936;2023-06-22T03:22:06;23.30;99.90
2459;DHT22;1241;50.920;6.936;2023-06-22T03:24:32;23.40;99.90
2459;DHT22;1241;50.920;6.936;2023-06-22T03:27:00;23.40;99.90
2459;DHT22;1241;50.920;6.936;2023-06-22T03:29:25;23.50;99.90
2459;DHT22;1241;50.920;6.936;2023-06-22T03:31:51;23.50;99.90
2459;DHT22;1241;50.920;6.936;2023-06-22T03:34:17;23.50;99.90
2459;DHT22;1241;50.920;6.936;2023-06-22T03:36:42;23.50;99.90
2459;DHT22;1241;50.920;6.936;2023-06-22T03:39:10;23.50;99.90
2459;DHT22;1241;50.920;6.936;2023-06-22T03:41:36;23.50;99.90
2459;DHT22;1241;50.920;6.936;2023-06-22T03:44:01;23.50;99.90
2459;DHT22;1241;50.920;6.936;2023-06-22T03:46:27;23.50;99.90
2459;DHT22;1241;50.920;6.936;2023-06-22T03:48:53;23.50;99.90
2459;DHT22;1241;50.920;6.936;2023-06-22T03:51:18;23.50;99.90
2459;DHT22;1241;50.920;6.936;2023-06-22T03:53:44;23.60;99.90
2459;DHT22;1241;50.920;6.936;2023-06-22T03:56:10;23.50;99.90
2459;DHT22;1241;50.920;6.936;2023-06-22T03:58:37;23.50;99.90
2459;DHT22;1241;50.920;6.936;2023-06-22T04:01:08;23.30;99.90
2459;DHT22;1241;50.920;6.936;2023-06-22T04:03:37;23.30;99.90
2459;DHT22;1241;50.920;6.936;2023-06-22T04:06:02;23.30;99.90
2459;DHT22;1241;50.920;6.936;2023-06-22T04:08:28;23.30;99.90
2459;DHT22;1241;50.920;6.936;2023-06-22T04:10:53;23.20;99.90
2459;DHT22;1241;50.920;6.936;2023-06-22T04:13:19;23.10;99.90
2459;DHT22;1241;50.920;6.936;2023-06-22T04:15:44;23.10;99.90
2459;DHT22;1241;50.920;6.936;2023-06-22T04:18:10;23.10;99.90
2459;DHT22;1241;50.920;6.936;2023-06-22T04:20:36;23.10;99.90
2459;DHT22;1241;50.920;6.936;2023-06-22T04:23:01;23.10;99.90
2459;DHT22;1241;50.920;6.936;2023-06-22T04:25:27;23.20;99.90
2459;DHT22;1241;50.920;6.936;2023-06-22T04:27:53;23.10;99.90
2459;DHT22;1241;50.920;6.936;2023-06-22T04:30:18;23.10;99.90
2459;DHT22;1241;50.920;6.936;2023-06-22T04:32:44;23.00;99.90
2459;DHT22;1241;50.920;6.936;2023-06-22T04:35:10;23.00;99.90
2459;DHT22;1241;50.920;6.936;2023-06-22T04:37:36;23.10;99.90
2459;DHT22;1241;50.920;6.936;2023-06-22T04:40:01;23.10;99.90
2459;DHT22;1241;50.920;6.936;2023-06-22T04:42:29;23.10;99.90
2459;DHT22;1241;50.920;6.936;2023-06-22T04:44:55;23.10;99.90
2459;DHT22;1241;50.920;6.936;2023-06-22T04:47:21;23.10;99.90
2459;DHT22;1241;50.920;6.936;2023-06-22T04:49:46;23.20;99.90
2459;DHT22;1241;50.920;6.936;2023-06-22T04:52:13;23.10;99.90
2459;DHT22;1241;50.920;6.936;2023-06-22T04:54:39;23.10;99.90
2459;DHT22;1241;50.920;6.936;2023-06-22T04:57:06;23.20;99.90
2459;DHT22;1241;50.920;6.936;2023-06-22T04:59:35;23.30;99.90
2459;DHT22;1241;50.920;6.936;2023-06-22T05:02:01;23.30;99.90
2459;DHT22;1241;50.920;6.936;2023-06-22T05:04:28;23.30;99.90
2459;DHT22;1241;50.920;6.936;2023-06-22T05:06:56;23.40;99.90
2459;DHT22;1241;50.920;6.936;2023-06-22T05:09:22;23.50;99.90
2459;DHT22;1241;50.920;6.936;2023-06-22T05:11:47;23.70;99.90
2459;DHT22;1241;50.920;6.936;2023-06-22T05:14:13;23.80;99.90
2459;DHT22;1241;50.920;6.936;2023-06-22T05:16:40;23.70;99.90
2459;DHT22;1241;50.920;6.936;2023-06-22T05:19:06;23.70;99.90
2459;DHT22;1241;50.920;6.936;2023-06-22T05:21:32;23.80;99.90
2459;DHT22;1241;50.920;6.936;2023-06-22T05:23:57;23.80;99.90
2459;DHT22;1241;50.920;6.936;2023-06-22T05:26:26;23.90;99.90
2459;DHT22;1241;50.920;6.936;2023-06-22T05:28:51;24.00;99.90
2459;DHT22;1241;50.920;6.936;2023-06-22T05:31:17;24.10;99.90
2459;DHT22;1241;50.920;6.936;2023-06-22T05:33:45;24.10;99.90
2459;DHT22;1241;50.920;6.936;2023-06-22T05:36:11;24.10;99.90
2459;DHT22;1241;50.920;6.936;2023-06-22T05:38:38;24.10;99.90
2459;DHT22;1241;50.920;6.936;2023-06-22T05:41:03;24.20;99.90
2459;DHT22;1241;50.920;6.936;2023-06-22T05:43:29;24.30;99.90
2459;DHT22;1241;50.920;6.936;2023-06-22T05:45:55;24.30;99.90
2459;DHT22;1241;50.920;6.936;2023-06-22T05:48:20;24.40;99.90
2459;DHT22;1241;50.920;6.936;2023-06-22T05:50:46;24.50;99.90
2459;DHT22;1241;50.920;6.936;2023-06-22T05:53:12;24.60;99.90
2459;DHT22;1241;50.920;6.936;2023-06-22T05:55:37;24.80;99.90
2459;DHT22;1241;50.920;6.936;2023-06-22T05:58:03;25.10;99.90
2459;DHT22;1241;50.920;6.936;2023-06-22T06:00:29;25.60;99.90
2459;DHT22;1241;50.920;6.936;2023-06-22T06:02:54;26.20;99.90
2459;DHT22;1241;50.920;6.936;2023-06-22T06:05:20;26.70;99.90
2459;DHT22;1241;50.920;6.936;2023-06-22T06:07:46;27.40;99.90
2459;DHT22;1241;50.920;6.936;2023-06-22T06:10:12;27.90;99.90
2459;DHT22;1241;50.920;6.936;2023-06-22T06:12:38;28.00;99.90
2459;DHT22;1241;50.920;6.936;2023-06-22T06:15:04;28.40;99.90
2459;DHT22;1241;50.920;6.936;2023-06-22T06:17:30;28.60;99.90
2459;DHT22;1241;50.920;6.936;2023-06-22T06:19:55;28.50;99.90
2459;DHT22;1241;50.920;6.936;2023-06-22T06:22:21;28.20;99.90
2459;DHT22;1241;50.920;6.936;2023-06-22T06:24:49;27.70;99.90
2459;DHT22;1241;50.920;6.936;2023-06-22T06:27:14;27.50;99.90
2459;DHT22;1241;50.920;6.936;2023-06-22T06:29:40;27.50;99.90
2459;DHT22;1241;50.920;6.936;2023-06-22T06:32:05;27.70;99.90
2459;DHT22;1241;50.920;6.936;2023-06-22T06:34:31;28.10;99.90
2459;DHT22;1241;50.920;6.936;2023-06-22T06:36:57;28.70;99.90
2459;DHT22;1241;50.920;6.936;2023-06-22T06:39:22;29.40;99.90
2459;DHT22;1241;50.920;6.936;2023-06-22T06:41:48;29.50;99.90
2459;DHT22;1241;50.920;6.936;2023-06-22T06:44:14;29.30;99.90
2459;DHT22;1241;50.920;6.936;2023-06-22T06:46:40;29.40;99.90
2459;DHT22;1241;50.920;6.936;2023-06-22T06:49:07;29.40;99.90
2459;DHT22;1241;50.920;6.936;2023-06-22T06:51:32;29.10;99.90
2459;DHT22;1241;50.920;6.936;2023-06-22T06:53:58;29.30;99.90
2459;DHT22;1241;50.920;6.936;2023-06-22T06:56:24;29.20;99.90
2459;DHT22;1241;50.920;6.936;2023-06-22T06:58:50;28.80;99.90
2459;DHT22;1241;50.920;6.936;2023-06-22T07:01:16;28.30;99.90
2459;DHT22;1241;50.920;6.936;2023-06-22T07:03:41;28.00;99.90
2459;DHT22;1241;50.920;6.936;2023-06-22T07:06:08;27.90;99.90
2459;DHT22;1241;50.920;6.936;2023-06-22T07:08:33;27.50;99.90
2459;DHT22;1241;50.920;6.936;2023-06-22T07:11:00;27.50;99.90
2459;DHT22;1241;50.920;6.936;2023-06-22T07:13:26;28.00;99.90
2459;DHT22;1241;50.920;6.936;2023-06-22T07:15:51;28.90;99.90
2459;DHT22;1241;50.920;6.936;2023-06-22T07:18:17;29.80;99.90
2459;DHT22;1241;50.920;6.936;2023-06-22T07:20:43;30.80;99.90
2459;DHT22;1241;50.920;6.936;2023-06-22T07:23:09;31.10;99.90
2459;DHT22;1241;50.920;6.936;2023-06-22T07:25:34;31.30;99.90
2459;DHT22;1241;50.920;6.936;2023-06-22T07:30:28;31.60;99.90
2459;DHT22;1241;50.920;6.936;2023-06-22T07:32:54;31.90;99.90
2459;DHT22;1241;50.920;6.936;2023-06-22T07:35:19;32.30;99.90
2459;DHT22;1241;50.920;6.936;2023-06-22T07:37:45;32.10;99.90
2459;DHT22;1241;50.920;6.936;2023-06-22T07:40:11;31.20;99.90
2459;DHT22;1241;50.920;6.936;2023-06-22T07:42:37;30.70;99.90
2459;DHT22;1241;50.920;6.936;2023-06-22T07:45:04;30.30;99.90
2459;DHT22;1241;50.920;6.936;2023-06-22T07:47:29;29.80;99.90
2459;DHT22;1241;50.920;6.936;2023-06-22T07:49:55;29.20;99.90
2459;DHT22;1241;50.920;6.936;2023-06-22T07:52:23;28.70;99.90
2459;DHT22;1241;50.920;6.936;2023-06-22T07:54:49;29.00;99.90
2459;DHT22;1241;50.920;6.936;2023-06-22T07:57:15;29.10;99.90
2459;DHT22;1241;50.920;6.936;2023-06-22T07:59:41;28.70;99.90
2459;DHT22;1241;50.920;6.936;2023-06-22T08:02:06;28.30;99.90
2459;DHT22;1241;50.920;6.936;2023-06-22T08:04:33;28.30;99.90
2459;DHT22;1241;50.920;6.936;2023-06-22T08:07:00;28.60;99.90
2459;DHT22;1241;50.920;6.936;2023-06-22T08:09:27;29.00;99.90
2459;DHT22;1241;50.920;6.936;2023-06-22T08:11:53;29.30;99.90
2459;DHT22;1241;50.920;6.936;2023-06-22T08:14:19;29.60;99.90
2459;DHT22;1241;50.920;6.936;2023-06-22T08:16:45;29.80;99.90
2459;DHT22;1241;50.920;6.936;2023-06-22T08:19:11;29.70;99.90
2459;DHT22;1241;50.920;6.936;2023-06-22T08:21:36;29.70;99.90
2459;DHT22;1241;50.920;6.936;2023-06-22T08:24:03;29.60;99.90
2459;DHT22;1241;50.920;6.936;2023-06-22T08:26:28;29.40;99.90
2459;DHT22;1241;50.920;6.936;2023-06-22T08:28:54;29.10;99.90
2459;DHT22;1241;50.920;6.936;2023-06-22T08:31:19;28.80;99.90
2459;DHT22;1241;50.920;6.936;2023-06-22T08:33:45;28.50;99.90
2459;DHT22;1241;50.920;6.936;2023-06-22T08:36:11;28.30;99.90
2459;DHT22;1241;50.920;6.936;2023-06-22T08:38:38;28.30;99.90
2459;DHT22;1241;50.920;6.936;2023-06-22T08:41:04;28.10;99.90
2459;DHT22;1241;50.920;6.936;2023-06-22T08:43:30;27.90;99.90
2459;DHT22;1241;50.920;6.936;2023-06-22T08:45:55;27.90;99.90
2459;DHT22;1241;50.920;6.936;2023-06-22T08:48:21;27.90;99.90
2459;DHT22;1241;50.920;6.936;2023-06-22T08:50:46;28.20;99.90
2459;DHT22;1241;50.920;6.936;2023-06-22T08:53:12;28.40;99.90
2459;DHT22;1241;50.920;6.936;2023-06-22T08:55:38;28.50;99.90
2459;DHT22;1241;50.920;6.936;2023-06-22T08:58:03;28.70;99.90
2459;DHT22;1241;50.920;6.936;2023-06-22T09:00:30;28.60;99.90
2459;DHT22;1241;50.920;6.936;2023-06-22T09:03:00;28.40;99.90
2459;DHT22;1241;50.920;6.936;2023-06-22T09:05:25;28.20;99.90
2459;DHT22;1241;50.920;6.936;2023-06-22T09:07:53;28.10;99.90
2459;DHT22;1241;50.920;6.936;2023-06-22T09:10:24;28.00;99.90
2459;DHT22;1241;50.920;6.936;2023-06-22T09:12:49;28.00;99.90
2459;DHT22;1241;50.920;6.936;2023-06-22T09:15:15;28.10;99.90
2459;DHT22;1241;50.920;6.936;2023-06-22T09:17:41;28.30;99.90
2459;DHT22;1241;50.920;6.936;2023-06-22T09:20:07;28.40;99.90
2459;DHT22;1241;50.920;6.936;2023-06-22T09:22:35;28.50;99.90
2459;DHT22;1241;50.920;6.936;2023-06-22T09:25:01;28.60;99.90
2459;DHT22;1241;50.920;6.936;2023-06-22T09:27:28;28.50;99.90
2459;DHT22;1241;50.920;6.936;2023-06-22T09:29:54;28.40;99.90
2459;DHT22;1241;50.920;6.936;2023-06-22T09:32:20;28.30;99.90
2459;DHT22;1241;50.920;6.936;2023-06-22T09:34:45;28.40;99.90
2459;DHT22;1241;50.920;6.936;2023-06-22T09:37:11;28.50;99.90
2459;DHT22;1241;50.920;6.936;2023-06-22T09:39:36;28.80;99.90
2459;DHT22;1241;50.920;6.936;2023-06-22T09:42:02;29.10;99.90
2459;DHT22;1241;50.920;6.936;2023-06-22T09:44:28;29.40;99.90
2459;DHT22;1241;50.920;6.936;2023-06-22T09:46:53;29.80;99.90
2459;DHT22;1241;50.920;6.936;2023-06-22T09:49:19;30.10;99.90
2459;DHT22;1241;50.920;6.936;2023-06-22T09:51:44;30.30;99.90
2459;DHT22;1241;50.920;6.936;2023-06-22T09:54:10;30.70;99.90
2459;DHT22;1241;50.920;6.936;2023-06-22T09:56:35;30.60;99.90
2459;DHT22;1241;50.920;6.936;2023-06-22T09:59:02;30.40;99.90
2459;DHT22;1241;50.920;6.936;2023-06-22T10:01:28;30.30;99.90
2459;DHT22;1241;50.920;6.936;2023-06-22T10:03:55;30.00;99.90
2459;DHT22;1241;50.920;6.936;2023-06-22T10:06:21;29.80;99.90
2459;DHT22;1241;50.920;6.936;2023-06-22T10:08:47;29.60;99.90
2459;DHT22;1241;50.920;6.936;2023-06-22T10:11:14;29.40;99.90
2459;DHT22;1241;50.920;6.936;2023-06-22T10:13:39;29.30;99.90
2459;DHT22;1241;50.920;6.936;2023-06-22T10:16:05;29.00;99.90
2459;DHT22;1241;50.920;6.936;2023-06-22T10:18:30;28.70;99.90
2459;DHT22;1241;50.920;6.936;2023-06-22T10:20:56;28.60;99.90
2459;DHT22;1241;50.920;6.936;2023-06-22T10:23:21;28.20;99.90
2459;DHT22;1241;50.920;6.936;2023-06-22T10:25:47;28.00;99.90
2459;DHT22;1241;50.920;6.936;2023-06-22T10:28:13;27.90;99.90
2459;DHT22;1241;50.920;6.936;2023-06-22T10:30:39;27.70;99.90
2459;DHT22;1241;50.920;6.936;2023-06-22T10:33:09;27.60;99.90
2459;DHT22;1241;50.920;6.936;2023-06-22T10:35:36;27.60;99.90
2459;DHT22;1241;50.920;6.936;2023-06-22T10:38:03;27.50;99.90
2459;DHT22;1241;50.920;6.936;2023-06-22T10:40:28;27.40;99.90
2459;DHT22;1241;50.920;6.936;2023-06-22T10:42:54;27.30;99.90
2459;DHT22;1241;50.920;6.936;2023-06-22T10:45:20;27.20;99.90
2459;DHT22;1241;50.920;6.936;2023-06-22T10:47:45;27.10;99.90
2459;DHT22;1241;50.920;6.936;2023-06-22T10:50:11;27.00;99.90
2459;DHT22;1241;50.920;6.936;2023-06-22T10:52:37;26.90;99.90
2459;DHT22;1241;50.920;6.936;2023-06-22T10:55:03;26.90;99.90
2459;DHT22;1241;50.920;6.936;2023-06-22T10:57:29;26.80;99.90
2459;DHT22;1241;50.920;6.936;2023-06-22T10:59:54;26.60;99.90
2459;DHT22;1241;50.920;6.936;2023-06-22T11:02:20;26.30;99.90
2459;DHT22;1241;50.920;6.936;2023-06-22T11:04:46;26.10;99.90
2459;DHT22;1241;50.920;6.936;2023-06-22T11:07:12;25.90;99.90
2459;DHT22;1241;50.920;6.936;2023-06-22T11:09:38;25.80;99.90
2459;DHT22;1241;50.920;6.936;2023-06-22T11:12:05;25.60;99.90
2459;DHT22;1241;50.920;6.936;2023-06-22T11:14:30;25.30;99.90
2459;DHT22;1241;50.920;6.936;2023-06-22T11:16:56;25.00;99.90
2459;DHT22;1241;50.920;6.936;2023-06-22T11:19:21;24.60;99.90
2459;DHT22;1241;50.920;6.936;2023-06-22T11:21:47;24.20;99.90
2459;DHT22;1241;50.920;6.936;2023-06-22T11:24:13;23.90;99.90
2459;DHT22;1241;50.920;6.936;2023-06-22T11:26:38;23.70;99.90
2459;DHT22;1241;50.920;6.936;2023-06-22T11:29:04;23.80;99.90
2459;DHT22;1241;50.920;6.936;2023-06-22T11:31:31;23.70;99.90
2459;DHT22;1241;50.920;6.936;2023-06-22T11:33:57;23.70;99.90
2459;DHT22;1241;50.920;6.936;2023-06-22T11:36:22;23.60;99.90
2459;DHT22;1241;50.920;6.936;2023-06-22T11:38:48;23.80;99.90
2459;DHT22;1241;50.920;6.936;2023-06-22T11:41:14;24.00;99.90
2459;DHT22;1241;50.920;6.936;2023-06-22T11:43:39;24.00;99.90
2459;DHT22;1241;50.920;6.936;2023-06-22T11:46:05;23.80;99.90
2459;DHT22;1241;50.920;6.936;2023-06-22T11:48:30;23.60;99.90
2459;DHT22;1241;50.920;6.936;2023-06-22T11:50:56;23.50;99.90
2459;DHT22;1241;50.920;6.936;2023-06-22T11:53:23;23.50;99.90
2459;DHT22;1241;50.920;6.936;2023-06-22T11:55:49;23.50;99.90
2459;DHT22;1241;50.920;6.936;2023-06-22T11:58:15;23.60;99.90
2459;DHT22;1241;50.920;6.936;2023-06-22T12:00:40;23.90;99.90
2459;DHT22;1241;50.920;6.936;2023-06-22T12:03:07;24.10;99.90
2459;DHT22;1241;50.920;6.936;2023-06-22T12:05:32;24.40;99.90
2459;DHT22;1241;50.920;6.936;2023-06-22T12:07:58;24.80;99.90
2459;DHT22;1241;50.920;6.936;2023-06-22T12:10:25;25.10;99.90
2459;DHT22;1241;50.920;6.936;2023-06-22T12:12:50;25.30;99.90
2459;DHT22;1241;50.920;6.936;2023-06-22T12:15:16;25.40;99.90
2459;DHT22;1241;50.920;6.936;2023-06-22T12:17:41;25.30;99.90
2459;DHT22;1241;50.920;6.936;2023-06-22T12:20:07;25.30;99.90
2459;DHT22;1241;50.920;6.936;2023-06-22T12:22:33;25.20;99.90
2459;DHT22;1241;50.920;6.936;2023-06-22T12:24:59;25.30;99.90
2459;DHT22;1241;50.920;6.936;2023-06-22T12:27:25;25.20;99.90
2459;DHT22;1241;50.920;6.936;2023-06-22T12:29:51;25.10;99.90
2459;DHT22;1241;50.920;6.936;2023-06-22T12:32:16;25.10;99.90
2459;DHT22;1241;50.920;6.936;2023-06-22T12:34:42;25.30;99.90
2459;DHT22;1241;50.920;6.936;2023-06-22T12:37:08;25.60;99.90
2459;DHT22;1241;50.920;6.936;2023-06-22T12:39:34;25.80;99.90
2459;DHT22;1241;50.920;6.936;2023-06-22T12:41:59;25.60;99.90
2459;DHT22;1241;50.920;6.936;2023-06-22T12:44:25;25.60;99.90
2459;DHT22;1241;50.920;6.936;2023-06-22T12:46:51;25.80;99.90
2459;DHT22;1241;50.920;6.936;2023-06-22T12:49:16;25.90;99.90
2459;DHT22;1241;50.920;6.936;2023-06-22T12:51:42;25.80;99.90
2459;DHT22;1241;50.920;6.936;2023-06-22T12:54:08;25.80;99.90
2459;DHT22;1241;50.920;6.936;2023-06-22T12:56:34;25.90;99.90
2459;DHT22;1241;50.920;6.936;2023-06-22T12:58:59;26.00;99.90
2459;DHT22;1241;50.920;6.936;2023-06-22T13:01:27;26.10;99.90
2459;DHT22;1241;50.920;6.936;2023-06-22T13:03:53;26.00;99.90
2459;DHT22;1241;50.920;6.936;2023-06-22T13:06:18;26.10;99.90
2459;DHT22;1241;50.920;6.936;2023-06-22T13:08:44;26.10;99.90
2459;DHT22;1241;50.920;6.936;2023-06-22T13:11:10;26.10;99.90
2459;DHT22;1241;50.920;6.936;2023-06-22T13:13:35;26.00;99.90
2459;DHT22;1241;50.920;6.936;2023-06-22T13:16:01;26.20;99.90
2459;DHT22;1241;50.920;6.936;2023-06-22T13:18:26;26.40;99.90
2459;DHT22;1241;50.920;6.936;2023-06-22T13:20:52;26.40;99.90
2459;DHT22;1241;50.920;6.936;2023-06-22T13:23:22;26.50;99.90
2459;DHT22;1241;50.920;6.936;2023-06-22T13:25:48;26.40;99.90
2459;DHT22;1241;50.920;6.936;2023-06-22T13:28:14;26.30;99.90
2459;DHT22;1241;50.920;6.936;2023-06-22T13:30:41;26.30;99.90
2459;DHT22;1241;50.920;6.936;2023-06-22T13:33:07;26.30;99.90
2459;DHT22;1241;50.920;6.936;2023-06-22T13:35:32;26.20;99.90
2459;DHT22;1241;50.920;6.936;2023-06-22T13:37:58;26.40;99.90
2459;DHT22;1241;50.920;6.936;2023-06-22T13:40:23;26.60;99.90
2459;DHT22;1241;50.920;6.936;2023-06-22T13:42:49;26.70;99.90
2459;DHT22;1241;50.920;6.936;2023-06-22T13:45:15;26.70;99.90
2459;DHT22;1241;50.920;6.936;2023-06-22T13:47:42;26.80;99.90
2459;DHT22;1241;50.920;6.936;2023-06-22T13:50:08;26.90;99.90
2459;DHT22;1241;50.920;6.936;2023-06-22T13:52:34;27.10;99.90
2459;DHT22;1241;50.920;6.936;2023-06-22T13:54:59;27.20;99.90
2459;DHT22;1241;50.920;6.936;2023-06-22T13:57:25;27.50;99.90
2459;DHT22;1241;50.920;6.936;2023-06-22T13:59:51;27.40;99.90
2459;DHT22;1241;50.920;6.936;2023-06-22T14:02:16;27.40;99.90
2459;DHT22;1241;50.920;6.936;2023-06-22T14:04:42;27.10;99.90
2459;DHT22;1241;50.920;6.936;2023-06-22T14:07:07;27.00;99.90
2459;DHT22;1241;50.920;6.936;2023-06-22T14:09:33;27.00;99.90
2459;DHT22;1241;50.920;6.936;2023-06-22T14:12:02;27.00;99.90
2459;DHT22;1241;50.920;6.936;2023-06-22T14:14:28;27.10;99.90
2459;DHT22;1241;50.920;6.936;2023-06-22T14:16:53;27.10;99.90
2459;DHT22;1241;50.920;6.936;2023-06-22T14:19:19;27.20;99.90
2459;DHT22;1241;50.920;6.936;2023-06-22T14:21:45;27.20;99.90
2459;DHT22;1241;50.920;6.936;2023-06-22T14:24:10;27.00;99.90
2459;DHT22;1241;50.920;6.936;2023-06-22T14:26:36;26.70;99.90
2459;DHT22;1241;50.920;6.936;2023-06-22T14:29:01;26.60;99.90
2459;DHT22;1241;50.920;6.936;2023-06-22T14:31:27;26.50;99.90
2459;DHT22;1241;50.920;6.936;2023-06-22T14:33:52;26.70;99.90
2459;DHT22;1241;50.920;6.936;2023-06-22T14:36:18;26.90;99.90
2459;DHT22;1241;50.920;6.936;2023-06-22T14:38:44;26.90;99.90
2459;DHT22;1241;50.920;6.936;2023-06-22T14:41:09;26.80;99.90
2459;DHT22;1241;50.920;6.936;2023-06-22T14:43:35;26.70;99.90
2459;DHT22;1241;50.920;6.936;2023-06-22T14:46:01;26.50;99.90
2459;DHT22;1241;50.920;6.936;2023-06-22T14:48:26;26.40;99.90
2459;DHT22;1241;50.920;6.936;2023-06-22T14:50:53;26.20;99.90
2459;DHT22;1241;50.920;6.936;2023-06-22T14:53:19;26.20;99.90
2459;DHT22;1241;50.920;6.936;2023-06-22T14:55:45;26.20;99.90
2459;DHT22;1241;50.920;6.936;2023-06-22T14:58:10;26.00;99.90
2459;DHT22;1241;50.920;6.936;2023-06-22T15:00:37;25.30;99.90
2459;DHT22;1241;50.920;6.936;2023-06-22T15:03:03;24.50;99.90
2459;DHT22;1241;50.920;6.936;2023-06-22T15:05:30;23.80;99.90
2459;DHT22;1241;50.920;6.936;2023-06-22T15:07:56;23.40;99.90
2459;DHT22;1241;50.920;6.936;2023-06-22T15:10:22;23.00;99.90
2459;DHT22;1241;50.920;6.936;2023-06-22T15:12:48;22.80;99.90
2459;DHT22;1241;50.920;6.936;2023-06-22T15:15:13;22.60;99.90
2459;DHT22;1241;50.920;6.936;2023-06-22T15:17:39;22.40;99.90
2459;DHT22;1241;50.920;6.936;2023-06-22T15:20:05;22.30;99.90
2459;DHT22;1241;50.920;6.936;2023-06-22T15:22:31;22.10;99.90
2459;DHT22;1241;50.920;6.936;2023-06-22T15:24:57;21.90;99.90
2459;DHT22;1241;50.920;6.936;2023-06-22T15:27:24;21.90;99.90
2459;DHT22;1241;50.920;6.936;2023-06-22T15:29:50;21.90;99.90
2459;DHT22;1241;50.920;6.936;2023-06-22T15:32:15;21.90;99.90
2459;DHT22;1241;50.920;6.936;2023-06-22T15:34:41;21.80;99.90
2459;DHT22;1241;50.920;6.936;2023-06-22T15:37:07;21.70;99.90
2459;DHT22;1241;50.920;6.936;2023-06-22T15:39:32;21.70;99.90
2459;DHT22;1241;50.920;6.936;2023-06-22T15:41:58;21.70;99.90
2459;DHT22;1241;50.920;6.936;2023-06-22T15:44:24;21.60;99.90
2459;DHT22;1241;50.920;6.936;2023-06-22T15:46:50;21.50;99.90
2459;DHT22;1241;50.920;6.936;2023-06-22T15:49:16;21.60;99.90
2459;DHT22;1241;50.920;6.936;2023-06-22T15:51:43;21.60;99.90
2459;DHT22;1241;50.920;6.936;2023-06-22T15:54:08;21.60;99.90
2459;DHT22;1241;50.920;6.936;2023-06-22T15:56:34;21.60;99.90
2459;DHT22;1241;50.920;6.936;2023-06-22T15:59:00;21.60;99.90
2459;DHT22;1241;50.920;6.936;2023-06-22T16:01:26;21.60;99.90